Aérodrome :
LOGIN :

S'inscrire | Disclaimer

   EN    FR    IT 

 










Légende :    VFR   VFR Marginal   IFR   IFR Intensif   IFR Très Intensif
Visi : 
Plafond : 
>= 8 km
>= 3000ft
5 à 8 km
1000 à 3000 ft
1500m à 5 km
500 à 1000 ft
800 à 1500m
200 à 500 ft
< 800m
< 200 ft
Symboles :   Orages  Brouillard  Fortes neiges  Fortes précipitations  Vent > 20 kt
SIGMETs :   Divers  Orages  Givrage  Turbulence  Onde Orograph.  Cendres Volcan.







- Altitude de l'aérodrome : 1058 ft
- Code IATA : SCN


EDDR - Saarbrücken

DERNIER METAR :
  • 191824Z 29014G24KT 9999 -SHRA SCT041TCU BKN060 14/12 Q1022 NOSIG

METARs EXPIRÉS :
  • 191820Z 29016KT 9999 -SHRA SCT041TCU BKN060 14/12 Q1022 NOSIG
  • 191750Z 26010KT 220V300 9999 FEW044TCU BKN060 17/10 Q1021 NOSIG
  • 191720Z 26008KT 9999 FEW044TCU SCT060 17/10 Q1021 NOSIG
  • 191650Z 26010KT 9999 FEW044 SCT060 18/10 Q1021 NOSIG
  • 191620Z 26012KT 9999 FEW044 SCT060 18/09 Q1021 NOSIG
  • 191550Z 25012KT 9999 FEW044 19/09 Q1020 NOSIG

TAF TAF EDDR
Valide du 19 à 18h jusqu'au 20 à 18h UTC


191700Z 1918/2018 26010KT 9999 FEW045
BECMG 1918/1921 26004KT
BECMG 2008/2012 27009KT
Pas de NOTAMs connus pour ce terrain.



MET'MAP, la Météo Aéronautique d'un coup d'oeil ! - Copyright ORBIFLY Décembre 2007 - Disclaimer

ORBIFLY MET'MAP TEAM :

Programmation & Développement : Alexandra Zaïnal
Conception & Développement : Baudouin d'Aumeries
Co-Programmation & Développement : Marc-Olivier Méhu
Soutien technique & logistique : Manuel Goepfert

Contact : metmap@orbifly.com




SOURCES & CREDITS :

   NOAA